Time;durP1;ratioP1;P1;durP2;ratioP2;P2;SDS_P1;SDS_P2;PMS_P1;PMS_P2;Temp;Humidity;BMP_temperature;BMP_pressure;BME280_temperature;BME280_humidity;BME280_pressure;Samples;Min_cycle;Max_cycle;Signal;HPM_P1;HPM_P2
2022/12/21 05:10:55;;;;;;;38.95;17.48;;;10.20;99.90;;;;;;5102639;27;20405;-80
2022/12/21 05:13:22;;;;;;;40.20;17.35;;;10.80;99.90;;;;;;5085901;28;20687;-80
2022/12/21 05:15:49;;;;;;;34.13;16.08;;;10.90;99.90;;;;;;5084491;28;20040;-80
2022/12/21 05:18:16;;;;;;;38.20;16.27;;;11.10;99.90;;;;;;5087155;28;20040;-80
2022/12/21 05:20:43;;;;;;;33.92;14.93;;;11.20;99.90;;;;;;5080249;28;20031;-80
2022/12/21 05:23:10;;;;;;;36.22;14.57;;;11.30;99.90;;;;;;5085952;28;20150;-80
2022/12/21 05:25:37;;;;;;;33.78;15.10;;;11.40;99.90;;;;;;5107253;22;20045;-84
2022/12/21 05:28:05;;;;;;;25.45;13.15;;;11.40;99.90;;;;;;5027006;28;20057;-85
2022/12/21 05:30:32;;;;;;;28.63;12.98;;;11.40;99.90;;;;;;5016201;28;20217;-87
2022/12/21 05:33:00;;;;;;;24.55;12.07;;;11.50;99.90;;;;;;5007327;28;20124;-86
2022/12/21 05:35:27;;;;;;;23.63;11.43;;;11.60;99.90;;;;;;5014275;28;20574;-84
2022/12/21 05:37:53;;;;;;;21.65;10.60;;;11.60;99.90;;;;;;5020841;28;20034;-88
2022/12/21 05:40:20;;;;;;;22.92;10.65;;;11.60;99.90;;;;;;5025835;28;20034;-87
2022/12/21 05:42:47;;;;;;;22.50;10.88;;;11.60;99.90;;;;;;5024398;28;20116;-89
2022/12/21 05:45:15;;;;;;;22.77;10.50;;;11.60;99.90;;;;;;5022582;28;20078;-89
2022/12/21 05:47:43;;;;;;;21.08;10.77;;;11.70;99.90;;;;;;5022152;28;20048;-90
2022/12/21 05:50:10;;;;;;;19.83;10.30;;;11.70;99.90;;;;;;5021999;28;20042;-90
2022/12/21 05:52:38;;;;;;;20.25;10.57;;;11.70;99.90;;;;;;5024575;28;20128;-90
2022/12/21 05:55:06;;;;;;;23.25;11.35;;;11.70;99.90;;;;;;5023350;28;20053;-91
2022/12/21 05:57:32;;;;;;;17.33;9.68;;;11.70;99.90;;;;;;5009905;28;20399;-88
2022/12/21 05:59:59;;;;;;;20.42;10.25;;;11.70;99.90;;;;;;5026172;28;20034;-89
2022/12/21 06:02:28;;;;;;;19.30;10.60;;;11.70;99.90;;;;;;5018858;28;20120;-88
2022/12/21 06:08:26;;;;;;;;;;;11.70;99.90;;;;;;4991898;28;20081;-84
2022/12/21 06:10:53;;;;;;;19.83;9.93;;;11.70;99.90;;;;;;5006198;28;19993;-86
2022/12/21 06:13:20;;;;;;;20.73;10.30;;;11.70;99.90;;;;;;5007476;28;20066;-85
2022/12/21 06:15:49;;;;;;;18.60;10.20;;;11.70;99.90;;;;;;5008992;28;20046;-84
2022/12/21 06:18:17;;;;;;;22.02;11.18;;;11.70;99.90;;;;;;5011689;28;20053;-85
2022/12/21 06:20:51;;;;;;;19.63;10.80;;;11.70;99.90;;;;;;5011172;28;20046;-85
2022/12/21 06:23:19;;;;;;;22.00;11.70;;;11.70;99.90;;;;;;5010949;28;20125;-85
2022/12/21 06:25:46;;;;;;;21.33;11.27;;;11.70;99.90;;;;;;5006898;28;20042;-81
2022/12/21 06:28:13;;;;;;;22.63;11.43;;;11.70;99.90;;;;;;5011670;28;20041;-84
2022/12/21 06:30:40;;;;;;;19.52;10.95;;;11.70;99.90;;;;;;5010695;28;20507;-87
2022/12/21 06:33:07;;;;;;;21.67;11.00;;;11.70;99.90;;;;;;5011965;28;20069;-85
2022/12/21 06:35:35;;;;;;;19.25;9.95;;;11.70;99.90;;;;;;5010979;28;20126;-92
2022/12/21 06:38:02;;;;;;;31.98;9.73;;;11.70;99.90;;;;;;5009918;28;20038;-84
2022/12/21 06:40:29;;;;;;;17.83;9.30;;;11.70;99.90;;;;;;5012275;28;20045;-84
2022/12/21 06:42:55;;;;;;;16.70;9.20;;;11.70;99.90;;;;;;5011210;28;20500;-84
2022/12/21 06:45:22;;;;;;;16.15;9.13;;;11.70;99.90;;;;;;5007430;28;20046;-84
2022/12/21 06:47:53;;;;;;;20.85;9.90;;;11.70;99.90;;;;;;5007874;28;20484;-84
2022/12/21 06:50:20;;;;;;;23.60;9.85;;;11.70;99.90;;;;;;5008196;28;20389;-84
2022/12/21 06:52:49;;;;;;;18.80;8.65;;;11.70;99.90;;;;;;5009189;28;20502;-84
2022/12/21 06:55:16;;;;;;;17.33;9.55;;;11.70;99.90;;;;;;5011875;28;20577;-84
2022/12/21 06:57:43;;;;;;;17.67;9.60;;;11.70;99.90;;;;;;5012168;28;20426;-84
2022/12/21 07:00:13;;;;;;;20.60;10.45;;;11.70;99.90;;;;;;5011280;28;20026;-84
2022/12/21 07:02:40;;;;;;;18.48;9.95;;;11.70;99.90;;;;;;5010291;28;20128;-85
2022/12/21 07:05:08;;;;;;;21.02;10.65;;;11.70;99.90;;;;;;5011697;28;20045;-85
2022/12/21 07:07:35;;;;;;;16.55;9.35;;;11.70;99.90;;;;;;5011722;28;20050;-84
2022/12/21 07:10:03;;;;;;;19.33;10.48;;;11.70;99.90;;;;;;5010458;28;20045;-84
2022/12/21 07:12:30;;;;;;;18.38;10.05;;;11.70;99.90;;;;;;5010958;28;20068;-84
2022/12/21 07:14:57;;;;;;;17.85;9.65;;;11.70;99.90;;;;;;5009987;28;20511;-84
2022/12/21 07:17:24;;;;;;;19.50;9.88;;;11.70;99.90;;;;;;5011107;28;20046;-84
2022/12/21 07:19:51;;;;;;;21.02;9.43;;;11.70;99.90;;;;;;5011898;28;20038;-84
2022/12/21 07:22:18;;;;;;;18.77;8.95;;;11.70;99.90;;;;;;5008065;28;20045;-84
2022/12/21 07:24:44;;;;;;;13.27;7.88;;;11.70;99.90;;;;;;5010220;28;20043;-84
2022/12/21 07:27:13;;;;;;;16.27;8.63;;;11.70;99.90;;;;;;5004036;28;20504;-84
2022/12/21 07:29:40;;;;;;;16.33;8.25;;;11.70;99.90;;;;;;5011645;28;20038;-84
2022/12/21 07:32:06;;;;;;;19.25;8.60;;;11.70;99.90;;;;;;5010315;28;20048;-84
2022/12/21 07:34:34;;;;;;;14.98;8.57;;;11.70;99.90;;;;;;5011322;28;20478;-84
2022/12/21 07:37:01;;;;;;;23.85;7.95;;;11.70;99.90;;;;;;5010376;28;20503;-84
2022/12/21 07:39:27;;;;;;;12.15;7.40;;;11.70;99.90;;;;;;5010327;28;20068;-84
2022/12/21 07:41:54;;;;;;;17.45;7.15;;;11.70;99.90;;;;;;5006464;28;20038;-84
2022/12/21 07:44:23;;;;;;;11.50;6.22;;;11.70;99.90;;;;;;5005006;28;20045;-84
2022/12/21 07:46:51;;;;;;;14.60;6.88;;;11.70;99.90;;;;;;5011152;28;20050;-84
2022/12/21 07:49:21;;;;;;;13.50;7.00;;;11.70;99.90;;;;;;5007757;28;20080;-84
2022/12/21 07:51:48;;;;;;;11.80;6.68;;;11.70;99.90;;;;;;5009913;28;20125;-84
2022/12/21 07:54:15;;;;;;;12.98;7.68;;;11.70;99.90;;;;;;5011058;28;20408;-84
2022/12/21 07:56:42;;;;;;;13.25;7.32;;;11.70;99.90;;;;;;5011250;28;20042;-84
2022/12/21 07:59:09;;;;;;;17.50;7.45;;;11.70;99.90;;;;;;5009254;28;20042;-84
2022/12/21 08:01:37;;;;;;;21.52;11.50;;;11.70;99.90;;;;;;5006263;28;20124;-84
2022/12/21 08:04:06;;;;;;;19.58;10.80;;;11.70;99.90;;;;;;5008520;28;20124;-84
2022/12/21 08:06:34;;;;;;;25.33;12.02;;;11.70;99.90;;;;;;5010012;28;20037;-84
2022/12/21 08:09:01;;;;;;;25.55;12.23;;;11.80;99.90;;;;;;5007353;28;20053;-84
2022/12/21 08:11:28;;;;;;;28.95;13.98;;;11.70;99.90;;;;;;5005752;28;20044;-84
2022/12/21 08:13:57;;;;;;;32.53;14.75;;;11.60;99.90;;;;;;5004384;28;20627;-84
2022/12/21 08:16:24;;;;;;;36.63;15.02;;;11.70;99.90;;;;;;5006004;28;20056;-84
2022/12/21 08:18:52;;;;;;;30.98;14.02;;;11.60;99.90;;;;;;5006848;28;20060;-84
2022/12/21 08:21:19;;;;;;;28.15;14.25;;;11.70;99.90;;;;;;5007801;28;20569;-89
2022/12/21 08:23:49;;;;;;;32.13;14.27;;;11.60;99.90;;;;;;5004232;28;20052;-94
2022/12/21 08:26:16;;;;;;;28.95;13.57;;;11.70;99.90;;;;;;5008843;28;20052;-84
2022/12/21 08:28:44;;;;;;;32.85;15.30;;;11.70;99.90;;;;;;5006041;28;20041;-82
2022/12/21 08:31:14;;;;;;;36.17;15.55;;;11.60;99.90;;;;;;5004874;28;20113;-84
2022/12/21 08:33:42;;;;;;;35.13;14.73;;;11.60;99.90;;;;;;5010397;28;20128;-84
2022/12/21 08:36:11;;;;;;;34.65;14.82;;;11.60;99.90;;;;;;5010098;28;20156;-84
2022/12/21 08:38:39;;;;;;;31.05;14.48;;;11.60;99.90;;;;;;5008971;28;20050;-84
2022/12/21 08:41:06;;;;;;;30.80;14.38;;;11.60;99.90;;;;;;5008566;28;20050;-86
2022/12/21 08:43:35;;;;;;;34.00;15.18;;;11.60;99.90;;;;;;5009250;28;20045;-90
2022/12/21 08:46:03;;;;;;;35.15;15.73;;;11.60;99.90;;;;;;5009424;28;20064;-84
2022/12/21 08:48:30;;;;;;;36.38;16.17;;;11.60;99.90;;;;;;5006705;28;20050;-84
2022/12/21 08:50:57;;;;;;;37.63;16.45;;;11.60;99.90;;;;;;5004048;28;20042;-85
2022/12/21 08:53:26;;;;;;;30.58;14.30;;;11.60;99.90;;;;;;5008198;28;20444;-91
2022/12/21 08:55:53;;;;;;;33.05;15.25;;;11.60;99.90;;;;;;5006990;28;20052;-83
2022/12/21 08:58:20;;;;;;;47.05;18.40;;;11.60;99.90;;;;;;5006326;28;20048;-83
2022/12/21 09:00:47;;;;;;;38.55;17.10;;;11.60;99.90;;;;;;5006324;28;20408;-83
2022/12/21 09:03:14;;;;;;;36.92;15.77;;;11.60;99.90;;;;;;5003879;28;20567;-82
2022/12/21 09:05:42;;;;;;;51.55;18.20;;;11.60;99.90;;;;;;5001698;28;20045;-83
2022/12/21 09:08:09;;;;;;;35.10;16.23;;;11.60;99.90;;;;;;5005394;28;20045;-85
2022/12/21 09:10:38;;;;;;;37.88;16.30;;;11.60;99.90;;;;;;5008093;28;20052;-84
2022/12/21 09:13:05;;;;;;;37.28;15.82;;;11.60;99.90;;;;;;5006402;28;20037;-83
2022/12/21 09:15:32;;;;;;;38.85;16.20;;;11.50;99.90;;;;;;5008000;28;20116;-83
2022/12/21 09:17:59;;;;;;;40.58;16.38;;;11.60;99.90;;;;;;5009728;28;20462;-83
2022/12/21 09:20:26;;;;;;;58.88;17.15;;;11.60;99.90;;;;;;5009473;28;20049;-83
2022/12/21 09:22:53;;;;;;;35.28;14.32;;;11.60;99.90;;;;;;5009000;28;20458;-83
2022/12/21 09:25:19;;;;;;;39.58;15.50;;;11.60;99.90;;;;;;5008498;28;20049;-83
2022/12/21 09:27:48;;;;;;;43.85;16.63;;;11.60;99.90;;;;;;5009810;28;20046;-83
2022/12/21 09:30:15;;;;;;;34.72;13.85;;;11.60;99.90;;;;;;5007622;28;20541;-83
2022/12/21 09:32:42;;;;;;;34.75;14.85;;;11.60;99.90;;;;;;5008506;28;20152;-83
2022/12/21 09:35:10;;;;;;;39.63;16.95;;;11.60;99.90;;;;;;5009729;28;20046;-83
2022/12/21 09:37:37;;;;;;;34.13;15.52;;;11.60;99.90;;;;;;5009314;28;20080;-83
2022/12/21 09:40:05;;;;;;;30.63;14.38;;;11.60;99.90;;;;;;5006714;28;20049;-83
2022/12/21 09:42:37;;;;;;;30.88;13.60;;;11.60;99.90;;;;;;5006157;28;20173;-83
2022/12/21 09:45:12;;;;;;;29.80;12.95;;;11.60;99.90;;;;;;5007937;28;20125;-83
2022/12/21 09:47:43;;;;;;;25.88;12.68;;;11.60;99.90;;;;;;5013616;28;20103;-84
2022/12/21 09:50:16;;;;;;;31.65;12.35;;;11.60;99.90;;;;;;5010830;28;20041;-83
2022/12/21 09:52:46;;;;;;;25.52;10.93;;;11.60;99.90;;;;;;5010255;28;20124;-83
2022/12/21 09:55:16;;;;;;;25.80;11.05;;;11.60;99.90;;;;;;5007547;28;20133;-83
2022/12/21 09:57:44;;;;;;;20.52;10.95;;;11.50;99.90;;;;;;5008995;28;20045;-84
2022/12/21 10:00:17;;;;;;;23.52;11.63;;;11.60;99.90;;;;;;5010883;28;20069;-83
2022/12/21 10:03:14;;;;;;;23.38;10.73;;;11.60;99.90;;;;;;5012267;28;20099;-84
2022/12/21 10:06:16;;;;;;;24.10;12.27;;;11.60;99.90;;;;;;5009235;28;20038;-84
2022/12/21 10:08:56;;;;;;;27.33;13.80;;;11.60;99.90;;;;;;5003299;28;20045;-84
2022/12/21 10:11:41;;;;;;;37.40;15.95;;;11.60;99.90;;;;;;5010741;28;20046;-83
2022/12/21 10:14:14;;;;;;;31.27;16.38;;;11.50;99.90;;;;;;5012359;28;20488;-84
2022/12/21 10:16:46;;;;;;;32.55;16.50;;;11.60;99.90;;;;;;5012220;28;20042;-83
2022/12/21 10:19:21;;;;;;;34.30;17.27;;;11.60;99.90;;;;;;5005141;28;20510;-83
2022/12/21 10:21:52;;;;;;;27.75;15.48;;;11.60;99.90;;;;;;4995721;28;20056;-83
2022/12/21 10:24:22;;;;;;;30.38;16.00;;;11.60;99.90;;;;;;5012190;28;20132;-83
2022/12/21 10:26:52;;;;;;;30.08;15.90;;;11.50;99.90;;;;;;5012532;28;20100;-83
2022/12/21 10:29:22;;;;;;;32.60;15.77;;;11.50;99.90;;;;;;5012401;28;20045;-83
2022/12/21 10:31:54;;;;;;;32.67;15.20;;;11.50;99.90;;;;;;5003908;28;20041;-83
2022/12/21 10:34:26;;;;;;;31.95;16.83;;;11.50;99.90;;;;;;5005283;28;20044;-83
2022/12/21 10:36:54;;;;;;;;;;;11.50;99.90;;;;;;5012645;28;20691;-83
2022/12/21 10:39:21;;;;;;;37.47;20.08;;;11.50;99.90;;;;;;5010402;28;19944;-83
2022/12/21 10:41:52;;;;;;;40.13;21.33;;;11.50;99.90;;;;;;5009832;28;20046;-84
2022/12/21 10:44:19;;;;;;;40.85;21.35;;;11.50;99.90;;;;;;5012328;28;20076;-83
2022/12/21 10:46:48;;;;;;;39.92;23.38;;;11.50;99.90;;;;;;5012663;28;20434;-83
2022/12/21 10:49:21;;;;;;;40.28;23.52;;;11.50;99.90;;;;;;5011182;28;20569;-84
2022/12/21 10:51:48;;;;;;;41.15;23.33;;;11.40;99.90;;;;;;4993454;28;20508;-84
2022/12/21 10:54:25;;;;;;;37.55;21.60;;;11.40;99.90;;;;;;5011022;28;20048;-84
2022/12/21 10:56:53;;;;;;;36.67;20.63;;;11.30;99.90;;;;;;5011967;28;20084;-83
2022/12/21 10:59:22;;;;;;;36.65;18.92;;;11.40;99.90;;;;;;5011438;28;20139;-84
2022/12/21 11:01:49;;;;;;;35.70;18.10;;;11.30;99.90;;;;;;5008745;28;20420;-84
2022/12/21 11:04:26;;;;;;;27.00;14.43;;;11.40;99.90;;;;;;5011466;28;20595;-83
2022/12/21 11:06:59;;;;;;;26.65;13.10;;;11.40;99.90;;;;;;5009004;28;20418;-82
2022/12/21 11:09:29;;;;;;;26.25;12.75;;;11.40;99.90;;;;;;5012052;28;20050;-88
2022/12/21 11:11:56;;;;;;;25.60;12.77;;;11.50;99.90;;;;;;5009687;28;20841;-83
2022/12/21 11:14:23;;;;;;;24.92;11.60;;;11.40;99.90;;;;;;5002945;28;20292;-83
2022/12/21 11:16:50;;;;;;;26.00;11.95;;;11.40;99.90;;;;;;5011938;28;20136;-83
2022/12/21 11:19:20;;;;;;;29.17;11.95;;;11.50;99.90;;;;;;5010692;28;20053;-83
2022/12/21 11:21:49;;;;;;;27.33;12.15;;;11.50;99.90;;;;;;5007840;28;20145;-83
2022/12/21 11:24:18;;;;;;;25.98;12.82;;;11.70;99.90;;;;;;5009109;28;20404;-84
2022/12/21 11:26:48;;;;;;;30.60;13.65;;;11.50;99.90;;;;;;5008212;23;20050;-82
2022/12/21 11:29:20;;;;;;;29.75;14.15;;;11.50;99.90;;;;;;4976519;28;20126;-83
2022/12/21 11:31:47;;;;;;;28.38;13.80;;;11.60;99.90;;;;;;4954556;28;20047;-83
2022/12/21 11:34:33;;;;;;;28.52;13.50;;;11.60;99.90;;;;;;4972672;28;20129;-83
2022/12/21 11:37:02;;;;;;;23.45;11.93;;;11.60;99.90;;;;;;4991467;28;20057;-83
2022/12/21 11:39:30;;;;;;;26.00;12.57;;;11.60;99.90;;;;;;4987895;28;20054;-83
2022/12/21 11:41:57;;;;;;;20.25;11.30;;;11.60;99.90;;;;;;4991834;28;20038;-83
2022/12/21 11:44:26;;;;;;;27.98;12.10;;;11.60;99.90;;;;;;4990540;28;20049;-83
2022/12/21 11:47:08;;;;;;;25.52;11.70;;;11.60;99.90;;;;;;4999802;28;20050;-83
2022/12/21 11:50:02;;;;;;;24.85;11.38;;;11.50;99.90;;;;;;4996953;28;20496;-83
2022/12/21 11:52:36;;;;;;;22.73;10.40;;;11.60;99.90;;;;;;4967619;28;20060;-83
2022/12/21 11:55:08;;;;;;;24.77;10.02;;;11.60;99.90;;;;;;5001014;28;20050;-83
2022/12/21 11:57:39;;;;;;;21.00;9.40;;;11.60;99.90;;;;;;5003967;28;20455;-83
2022/12/21 12:00:07;;;;;;;;;;;11.60;99.90;;;;;;5000022;28;20048;-82
2022/12/21 12:03:11;;;;;;;27.08;10.50;;;11.50;99.90;;;;;;4997339;28;20026;-83
2022/12/21 12:05:52;;;;;;;25.50;10.60;;;11.60;99.90;;;;;;4999767;28;20172;-82
2022/12/21 12:08:29;;;;;;;22.23;9.65;;;11.60;99.90;;;;;;4995609;28;20048;-80
2022/12/21 12:11:09;;;;;;;24.55;10.10;;;11.60;99.90;;;;;;4999723;28;20036;-83
2022/12/21 12:13:52;;;;;;;30.48;10.40;;;11.60;99.90;;;;;;4989911;28;20054;-83
2022/12/21 12:16:25;;;;;;;24.42;10.10;;;11.60;99.90;;;;;;5001442;28;20046;-85
2022/12/21 12:18:57;;;;;;;21.98;9.52;;;11.50;99.90;;;;;;4991509;28;20472;-84
2022/12/21 12:21:33;;;;;;;25.17;8.75;;;11.50;99.90;;;;;;4999950;28;20043;-82
2022/12/21 12:24:19;;;;;;;28.58;10.10;;;11.50;99.90;;;;;;4995018;28;20048;-87
2022/12/21 12:26:53;;;;;;;23.42;8.90;;;11.50;99.90;;;;;;4993876;28;20036;-87
2022/12/21 12:29:35;;;;;;;23.75;8.98;;;11.50;99.90;;;;;;5002787;28;20065;-87
2022/12/21 12:32:26;;;;;;;20.92;9.88;;;11.50;99.90;;;;;;4993845;28;20038;-87
2022/12/21 12:35:12;;;;;;;22.75;9.35;;;11.50;99.90;;;;;;4992482;28;20039;-86
2022/12/21 12:37:49;;;;;;;20.10;9.20;;;11.50;99.90;;;;;;4989517;28;20120;-83
2022/12/21 12:40:23;;;;;;;26.30;9.55;;;11.50;99.90;;;;;;4997071;28;20137;-87
2022/12/21 12:42:53;;;;;;;26.60;9.75;;;11.50;99.90;;;;;;4996377;28;20049;-87
2022/12/21 12:45:29;;;;;;;22.40;8.85;;;11.50;99.90;;;;;;4995878;28;20037;-87
2022/12/21 12:48:02;;;;;;;21.17;9.50;;;11.50;99.90;;;;;;5004295;28;20050;-87
2022/12/21 12:50:35;;;;;;;24.75;9.35;;;11.50;99.90;;;;;;4996789;28;20042;-87
2022/12/21 12:53:11;;;;;;;20.23;8.90;;;11.50;99.90;;;;;;4994633;28;20056;-87
2022/12/21 12:55:44;;;;;;;25.67;9.40;;;11.60;99.90;;;;;;4997428;28;20042;-86
2022/12/21 12:58:14;;;;;;;26.88;9.15;;;11.40;99.90;;;;;;4991410;28;20046;-86
2022/12/21 13:00:49;;;;;;;19.83;8.52;;;11.50;99.90;;;;;;4995398;28;20041;-86
2022/12/21 13:03:26;;;;;;;18.73;8.95;;;11.40;99.90;;;;;;4991359;28;20775;-85
2022/12/21 13:05:58;;;;;;;27.80;9.05;;;11.40;99.90;;;;;;4989708;28;20190;-86
2022/12/21 13:08:38;;;;;;;23.88;8.82;;;11.40;99.90;;;;;;4990901;28;20466;-85
2022/12/21 13:11:10;;;;;;;27.40;9.90;;;11.40;99.90;;;;;;4990084;28;20060;-84
2022/12/21 13:13:43;;;;;;;23.33;8.85;;;11.40;99.90;;;;;;4996901;28;20449;-86
2022/12/21 13:16:13;;;;;;;17.90;8.18;;;11.40;99.90;;;;;;4988299;28;20034;-86
2022/12/21 13:18:42;;;;;;;19.60;8.30;;;11.40;99.90;;;;;;4993811;28;20050;-86
2022/12/21 13:21:10;;;;;;;20.58;8.02;;;11.40;99.90;;;;;;5001046;28;20492;-86
2022/12/21 13:23:43;;;;;;;26.40;8.60;;;11.40;99.90;;;;;;4985590;28;20047;-86
2022/12/21 13:26:12;;;;;;;23.17;7.95;;;11.40;99.90;;;;;;4992949;28;20073;-86
2022/12/21 13:28:49;;;;;;;21.67;7.60;;;11.40;99.90;;;;;;4988797;28;20049;-89
2022/12/21 13:31:18;;;;;;;13.98;6.93;;;11.40;99.90;;;;;;4995255;28;20136;-86
2022/12/21 13:33:48;;;;;;;19.00;8.07;;;11.40;99.90;;;;;;4995435;28;20049;-86
2022/12/21 13:36:18;;;;;;;24.38;7.78;;;11.40;99.90;;;;;;4993480;28;20054;-86
2022/12/21 13:38:52;;;;;;;22.93;8.27;;;11.40;99.90;;;;;;4996830;28;20035;-86
2022/12/21 13:41:22;;;;;;;18.30;7.40;;;11.40;99.90;;;;;;4990699;28;20349;-86
2022/12/21 13:43:52;;;;;;;19.45;7.00;;;11.40;99.90;;;;;;4995502;28;20290;-86
2022/12/21 13:46:21;;;;;;;20.30;7.13;;;11.40;99.90;;;;;;5003185;28;20046;-86
2022/12/21 13:48:51;;;;;;;15.50;6.60;;;11.50;99.90;;;;;;4996750;28;20045;-86
2022/12/21 13:51:26;;;;;;;16.45;6.65;;;11.40;99.90;;;;;;5001378;28;20047;-85
2022/12/21 13:54:04;;;;;;;16.95;6.72;;;11.40;99.90;;;;;;4997005;28;20046;-85
2022/12/21 13:56:43;;;;;;;17.40;6.72;;;11.30;99.90;;;;;;4997156;28;20050;-87
2022/12/21 13:59:17;;;;;;;15.13;6.40;;;11.30;99.90;;;;;;4999477;28;20108;-84
2022/12/21 14:01:48;;;;;;;17.55;6.18;;;11.30;99.90;;;;;;4992033;28;20113;-85
2022/12/21 14:04:18;;;;;;;14.40;5.78;;;11.30;99.90;;;;;;4994304;28;20100;-85
2022/12/21 14:07:07;;;;;;;13.82;5.82;;;11.30;99.90;;;;;;4999533;28;20046;-85
2022/12/21 14:09:45;;;;;;;15.98;5.38;;;11.30;99.90;;;;;;4993486;28;20039;-89
2022/12/21 14:12:23;;;;;;;11.27;5.25;;;11.30;99.90;;;;;;4995068;28;20040;-90
2022/12/21 14:15:02;;;;;;;15.48;4.90;;;11.30;99.90;;;;;;4989108;28;20056;-90
2022/12/21 14:17:32;;;;;;;16.92;5.65;;;11.30;99.90;;;;;;4995099;28;20521;-90
2022/12/21 14:19:59;;;;;;;13.45;5.18;;;11.30;99.90;;;;;;4995017;28;20057;-90
2022/12/21 14:22:37;;;;;;;12.48;4.57;;;11.30;99.90;;;;;;4998745;28;20117;-89
2022/12/21 14:25:16;;;;;;;12.52;5.05;;;11.30;99.90;;;;;;4991054;28;20576;-87
2022/12/21 14:27:46;;;;;;;13.93;5.35;;;11.20;99.90;;;;;;4989142;28;20046;-87
2022/12/21 14:30:17;;;;;;;11.40;4.60;;;11.20;99.90;;;;;;4993746;28;20045;-80
2022/12/21 14:32:49;;;;;;;14.43;4.90;;;11.20;99.90;;;;;;4995573;28;20044;-88
2022/12/21 14:35:30;;;;;;;15.02;4.13;;;11.20;99.90;;;;;;4993896;28;20049;-89
2022/12/21 14:38:26;;;;;;;10.50;4.15;;;11.20;99.90;;;;;;4984677;28;20071;-89
2022/12/21 14:40:59;;;;;;;12.07;4.97;;;11.20;99.90;;;;;;4998906;28;20070;-89
2022/12/21 14:43:26;;;;;;;16.45;4.45;;;11.20;99.90;;;;;;4995891;28;20049;-89
2022/12/21 14:45:53;;;;;;;9.75;4.18;;;11.20;99.90;;;;;;4994118;28;20116;-89
2022/12/21 14:48:56;;;;;;;11.35;5.13;;;11.10;99.90;;;;;;4999055;28;20058;-89
2022/12/21 14:51:54;;;;;;;9.85;4.28;;;11.10;99.90;;;;;;5000205;28;20092;-87
2022/12/21 14:54:28;;;;;;;10.10;4.28;;;11.10;99.90;;;;;;4997168;28;20125;-89
2022/12/21 14:57:18;;;;;;;11.65;4.47;;;11.10;99.90;;;;;;4998808;28;20511;-89
2022/12/21 14:59:47;;;;;;;14.68;4.57;;;11.10;99.90;;;;;;4996660;28;20038;-89
2022/12/21 15:02:22;;;;;;;10.50;4.22;;;11.10;99.90;;;;;;5000863;28;20052;-89
2022/12/21 15:04:51;;;;;;;11.43;4.82;;;11.00;99.90;;;;;;4996243;28;20074;-89
2022/12/21 15:07:20;;;;;;;15.52;5.38;;;11.00;99.90;;;;;;4994479;28;20057;-89
2022/12/21 15:09:55;;;;;;;11.70;5.45;;;11.00;99.90;;;;;;4992063;28;20068;-89
2022/12/21 15:12:34;;;;;;;13.30;5.15;;;11.00;99.90;;;;;;4993881;28;20054;-89
2022/12/21 15:15:01;;;;;;;12.35;5.47;;;11.00;99.90;;;;;;4997736;28;20046;-88
2022/12/21 15:17:31;;;;;;;14.65;5.43;;;11.00;99.90;;;;;;4993099;28;20054;-88
2022/12/21 15:19:58;;;;;;;13.90;5.45;;;11.00;99.90;;;;;;4993722;28;20065;-89
2022/12/21 15:22:44;;;;;;;12.38;5.28;;;11.00;99.90;;;;;;4996140;28;20070;-89
2022/12/21 15:25:15;;;;;;;12.13;4.90;;;11.10;99.90;;;;;;4999665;28;20064;-89
2022/12/21 15:27:46;;;;;;;17.17;5.72;;;10.90;99.90;;;;;;4994002;28;20125;-89
2022/12/21 15:30:21;;;;;;;15.13;5.32;;;10.90;99.90;;;;;;4994519;28;20042;-79
2022/12/21 15:32:58;;;;;;;13.90;5.43;;;10.90;99.90;;;;;;4991456;28;20038;-82
2022/12/21 15:35:29;;;;;;;12.77;5.40;;;10.90;99.90;;;;;;4994367;28;20050;-82
2022/12/21 15:37:59;;;;;;;9.98;4.60;;;10.90;99.90;;;;;;4993837;28;20046;-82
2022/12/21 15:40:30;;;;;;;13.32;4.70;;;10.90;99.90;;;;;;5003294;28;20403;-82
2022/12/21 15:43:03;;;;;;;11.32;4.32;;;11.00;99.90;;;;;;4995561;28;20041;-82
2022/12/21 15:45:42;;;;;;;10.00;4.22;;;10.80;99.90;;;;;;4996800;28;20041;-81
2022/12/21 15:48:17;;;;;;;11.85;4.40;;;10.80;99.90;;;;;;4993640;28;20046;-82
2022/12/21 15:50:44;;;;;;;12.48;4.60;;;10.90;99.90;;;;;;4996351;28;20049;-82
2022/12/21 15:53:22;;;;;;;11.35;5.00;;;10.90;99.90;;;;;;4986788;28;20064;-83
2022/12/21 15:55:50;;;;;;;9.60;4.03;;;10.90;99.90;;;;;;4993158;28;20133;-82
2022/12/21 15:58:23;;;;;;;9.38;4.30;;;10.90;99.90;;;;;;5000890;28;20145;-82
2022/12/21 16:00:56;;;;;;;9.32;4.30;;;10.90;99.90;;;;;;4987365;28;20063;-81
2022/12/21 16:03:23;;;;;;;9.93;4.90;;;10.80;99.90;;;;;;4991971;28;20485;-82
2022/12/21 16:06:02;;;;;;;11.35;5.72;;;10.80;99.90;;;;;;4986807;28;20073;-81
2022/12/21 16:08:29;;;;;;;17.95;5.80;;;10.80;99.90;;;;;;4992204;28;20053;-82
2022/12/21 16:10:56;;;;;;;14.00;5.30;;;10.90;99.90;;;;;;4995850;28;20034;-82
2022/12/21 16:13:26;;;;;;;11.95;5.22;;;10.80;99.90;;;;;;4994363;28;20034;-81
2022/12/21 16:15:54;;;;;;;11.32;4.75;;;10.80;99.90;;;;;;4988471;28;20042;-85
2022/12/21 16:18:22;;;;;;;13.35;4.68;;;10.80;99.90;;;;;;4995201;28;20038;-77
2022/12/21 16:20:56;;;;;;;8.13;4.13;;;10.80;99.90;;;;;;4991665;28;20042;-77
2022/12/21 16:23:25;;;;;;;11.25;4.10;;;10.80;99.90;;;;;;4994322;28;20042;-76
2022/12/21 16:25:53;;;;;;;8.57;4.13;;;10.80;99.90;;;;;;4995721;28;20042;-76
2022/12/21 16:28:29;;;;;;;9.57;4.30;;;10.80;99.90;;;;;;4988997;28;20054;-78
2022/12/21 16:31:02;;;;;;;9.50;4.15;;;10.70;99.90;;;;;;4983286;28;20070;-77
2022/12/21 16:33:35;;;;;;;10.82;4.85;;;10.70;99.90;;;;;;4994465;28;20085;-77
2022/12/21 16:36:02;;;;;;;11.90;4.65;;;10.70;99.90;;;;;;4989167;28;20393;-77
2022/12/21 16:38:33;;;;;;;10.60;5.43;;;10.70;99.90;;;;;;4985951;28;20049;-77
2022/12/21 16:41:01;;;;;;;11.05;5.22;;;10.70;99.90;;;;;;4994503;28;20067;-77
2022/12/21 16:43:30;;;;;;;13.05;6.03;;;10.70;99.90;;;;;;4992945;28;20551;-77
2022/12/21 16:46:03;;;;;;;17.38;7.07;;;10.70;99.90;;;;;;4994780;28;20046;-77
2022/12/21 16:48:40;;;;;;;16.50;7.88;;;10.70;99.90;;;;;;4987372;28;20125;-77
2022/12/21 16:51:07;;;;;;;19.30;6.65;;;10.70;99.90;;;;;;4997434;28;20047;-77
2022/12/21 16:53:42;;;;;;;14.43;6.22;;;10.70;99.90;;;;;;4983703;28;20109;-77
2022/12/21 16:56:26;;;;;;;9.25;4.57;;;10.70;99.90;;;;;;4987543;28;20045;-77
2022/12/21 16:58:56;;;;;;;15.23;5.75;;;10.70;99.90;;;;;;4988666;28;20058;-77
2022/12/21 17:01:26;;;;;;;12.10;6.05;;;10.70;99.90;;;;;;4983798;28;20126;-77
2022/12/21 17:03:55;;;;;;;14.35;6.32;;;10.70;99.90;;;;;;4988727;28;20044;-77
2022/12/21 17:06:27;;;;;;;12.98;5.72;;;10.70;99.90;;;;;;4988597;28;20042;-77
2022/12/21 17:08:54;;;;;;;15.05;5.95;;;10.70;99.90;;;;;;4983161;28;20050;-79
2022/12/21 17:11:21;;;;;;;10.15;4.70;;;10.70;99.90;;;;;;4981668;28;20038;-78
2022/12/21 17:13:48;;;;;;;9.65;3.60;;;10.70;99.90;;;;;;4984188;28;20038;-90
2022/12/21 17:16:21;;;;;;;10.20;4.30;;;10.70;99.90;;;;;;4990442;28;20042;-90
2022/12/21 17:18:51;;;;;;;11.55;4.00;;;10.60;99.90;;;;;;4983815;28;20055;-83
2022/12/21 17:21:29;;;;;;;7.65;3.75;;;10.60;99.90;;;;;;4984268;28;20046;-82
2022/12/21 17:23:58;;;;;;;10.35;4.10;;;10.70;99.90;;;;;;4976278;28;20043;-82
2022/12/21 17:26:32;;;;;;;19.75;4.75;;;10.70;99.90;;;;;;5014493;23;20045;-83
2022/12/21 17:28:59;;;;;;;9.02;3.90;;;10.60;99.90;;;;;;4976506;28;20144;-83
2022/12/21 17:31:28;;;;;;;9.73;4.10;;;10.60;99.90;;;;;;4979549;28;20125;-85
2022/12/21 17:33:55;;;;;;;12.65;4.00;;;10.70;99.90;;;;;;4977953;28;20043;-85
2022/12/21 17:36:22;;;;;;;11.50;5.00;;;10.70;99.90;;;;;;4986389;28;20054;-84
2022/12/21 17:38:49;;;;;;;10.60;4.80;;;10.70;99.90;;;;;;4979548;28;20070;-83
2022/12/21 17:41:18;;;;;;;9.35;4.60;;;10.70;99.90;;;;;;4995213;28;20042;-83
2022/12/21 17:43:45;;;;;;;8.13;4.32;;;10.70;99.90;;;;;;4976191;28;20130;-88
2022/12/21 17:46:17;;;;;;;9.73;4.82;;;10.70;99.90;;;;;;4977573;28;20572;-78
2022/12/21 17:48:48;;;;;;;9.82;4.85;;;10.70;99.90;;;;;;4975886;28;20046;-83
2022/12/21 17:51:18;;;;;;;10.00;4.85;;;10.70;99.90;;;;;;4979129;28;20130;-85
2022/12/21 17:53:45;;;;;;;9.77;3.90;;;10.70;99.90;;;;;;4975309;28;20356;-85
2022/12/21 17:56:15;;;;;;;8.57;4.32;;;10.70;99.90;;;;;;4976724;28;20042;-83
2022/12/21 17:58:43;;;;;;;10.63;4.15;;;10.70;99.90;;;;;;4977621;28;20516;-93
2022/12/21 18:01:12;;;;;;;9.85;4.82;;;10.70;99.90;;;;;;4976203;28;20034;-88
2022/12/21 18:03:39;;;;;;;12.85;5.32;;;10.70;99.90;;;;;;4985495;28;20135;-93
2022/12/21 18:06:10;;;;;;;11.23;6.00;;;10.80;99.90;;;;;;4984041;28;20070;-90
2022/12/21 18:08:37;;;;;;;;;;;10.80;99.90;;;;;;4991226;28;20045;-86